Time;durP1;ratioP1;P1;durP2;ratioP2;P2;SDS_P1;SDS_P2;PMS_P1;PMS_P2;Temp;Humidity;BMP_temperature;BMP_pressure;BME280_temperature;BME280_humidity;BME280_pressure;Samples;Min_cycle;Max_cycle;Signal;HPM_P1;HPM_P2
2022/12/27 00:02:01;;;;;;;2.35;0.80;;;5.40;99.90;;;;;;4997172;28;20031;-60
2022/12/27 00:04:28;;;;;;;9.90;2.13;;;5.40;99.90;;;;;;4997016;28;20050;-60
2022/12/27 00:06:55;;;;;;;6.32;1.08;;;5.40;99.90;;;;;;4996968;28;20039;-61
2022/12/27 00:09:21;;;;;;;3.35;0.90;;;5.50;99.90;;;;;;4996763;28;20034;-61
2022/12/27 00:11:48;;;;;;;5.20;1.08;;;5.40;99.90;;;;;;4996911;28;20038;-60
2022/12/27 00:14:21;;;;;;;3.88;1.55;;;5.40;99.90;;;;;;4980971;28;20031;-60
2022/12/27 00:16:48;;;;;;;7.43;1.10;;;5.40;99.90;;;;;;4980123;28;20054;-61
2022/12/27 00:19:15;;;;;;;6.35;1.30;;;5.40;99.90;;;;;;4996570;28;20038;-59
2022/12/27 00:21:42;;;;;;;10.07;1.85;;;5.40;99.90;;;;;;4980112;28;20046;-61
2022/12/27 00:24:09;;;;;;;7.85;1.98;;;5.40;99.90;;;;;;4996441;28;20030;-61
2022/12/27 00:26:50;;;;;;;4.57;1.40;;;5.40;99.90;;;;;;4981923;28;20053;-60
2022/12/27 00:29:17;;;;;;;3.90;1.23;;;5.40;99.90;;;;;;4979634;28;20073;-61
2022/12/27 00:31:44;;;;;;;5.93;1.20;;;5.30;99.90;;;;;;4996421;28;20050;-59
2022/12/27 00:34:11;;;;;;;2.83;1.05;;;5.40;99.90;;;;;;4979747;28;20099;-60
2022/12/27 00:36:37;;;;;;;18.35;2.78;;;5.40;99.90;;;;;;4979890;28;21301;-62
2022/12/27 00:39:05;;;;;;;6.72;1.10;;;5.40;99.90;;;;;;4996205;28;20065;-61
2022/12/27 00:41:34;;;;;;;6.65;1.20;;;5.40;99.90;;;;;;4979860;28;20066;-59
2022/12/27 00:44:01;;;;;;;5.18;1.60;;;5.40;99.90;;;;;;4979480;28;20054;-61
2022/12/27 00:46:28;;;;;;;3.25;1.15;;;5.40;99.90;;;;;;4963822;28;20039;-61
2022/12/27 00:48:56;;;;;;;10.68;1.35;;;5.40;99.90;;;;;;4979536;28;20371;-59
2022/12/27 00:51:23;;;;;;;3.13;1.08;;;5.40;99.90;;;;;;4979729;28;20106;-59
2022/12/27 00:53:50;;;;;;;4.22;1.05;;;5.40;99.90;;;;;;4996105;28;20045;-60
2022/12/27 00:56:20;;;;;;;15.38;1.63;;;5.40;99.90;;;;;;4976196;28;20031;-61
2022/12/27 00:58:46;;;;;;;3.85;1.13;;;5.40;99.90;;;;;;4979475;28;20082;-60
2022/12/27 01:01:16;;;;;;;6.65;1.30;;;5.40;99.90;;;;;;4995805;28;20035;-60
2022/12/27 01:03:43;;;;;;;6.40;1.27;;;5.40;99.90;;;;;;4996083;28;20099;-60
2022/12/27 01:06:11;;;;;;;3.03;1.00;;;5.40;99.90;;;;;;4995319;28;20026;-60
2022/12/27 01:08:38;;;;;;;12.93;2.78;;;5.40;99.90;;;;;;4996057;28;20034;-60
2022/12/27 01:11:06;;;;;;;7.07;0.85;;;5.50;99.90;;;;;;4995578;28;20121;-60
2022/12/27 01:13:32;;;;;;;6.25;1.13;;;5.50;99.90;;;;;;4996147;28;20066;-59
2022/12/27 01:15:59;;;;;;;10.18;1.92;;;5.50;99.90;;;;;;4995830;28;20046;-63
2022/12/27 01:18:26;;;;;;;3.28;1.00;;;5.40;99.90;;;;;;4995821;28;20050;-60
2022/12/27 01:20:53;;;;;;;5.00;0.90;;;5.50;99.90;;;;;;4995585;28;20035;-60
2022/12/27 01:23:19;;;;;;;6.22;1.52;;;5.40;99.90;;;;;;4995974;28;20034;-59
2022/12/27 01:25:46;;;;;;;5.65;0.63;;;5.60;99.90;;;;;;4979179;28;20027;-59
2022/12/27 01:28:13;;;;;;;10.50;1.45;;;5.30;99.90;;;;;;4995861;28;20085;-59
2022/12/27 01:30:40;;;;;;;9.07;1.45;;;5.30;99.90;;;;;;4995616;28;20073;-60
2022/12/27 01:33:06;;;;;;;2.55;0.70;;;5.30;99.90;;;;;;4995718;28;20043;-59
2022/12/27 01:35:33;;;;;;;9.45;1.30;;;5.30;99.90;;;;;;4978943;28;20050;-60
2022/12/27 01:38:00;;;;;;;6.22;1.17;;;5.30;99.90;;;;;;4995726;28;20031;-60
2022/12/27 01:40:26;;;;;;;3.00;0.85;;;5.30;99.90;;;;;;4995397;28;20035;-59
2022/12/27 01:42:54;;;;;;;10.23;1.23;;;5.30;99.90;;;;;;4995758;28;20038;-61
2022/12/27 01:45:25;;;;;;;5.20;1.05;;;5.30;99.90;;;;;;4995590;28;20066;-61
2022/12/27 01:48:08;;;;;;;7.18;1.80;;;5.30;99.90;;;;;;4978701;28;20054;-61
2022/12/27 01:50:44;;;;;;;8.20;1.23;;;5.30;99.90;;;;;;4979258;28;20106;-60
2022/12/27 01:53:20;;;;;;;5.10;1.05;;;5.30;99.90;;;;;;4960348;28;20039;-61
2022/12/27 01:55:57;;;;;;;8.40;1.83;;;5.40;99.90;;;;;;4979114;28;20042;-61
2022/12/27 01:58:31;;;;;;;15.27;1.38;;;5.40;99.90;;;;;;4978721;28;20030;-60
2022/12/27 02:00:58;;;;;;;10.27;2.03;;;5.40;99.90;;;;;;4995550;28;20035;-60
2022/12/27 02:03:29;;;;;;;2.63;0.90;;;5.40;99.90;;;;;;4995412;28;20098;-62
2022/12/27 02:05:57;;;;;;;3.00;1.13;;;5.40;99.90;;;;;;4978983;28;20042;-61
2022/12/27 02:08:41;;;;;;;7.20;1.73;;;5.40;99.90;;;;;;4978633;28;20050;-60
2022/12/27 02:11:08;;;;;;;5.22;1.25;;;5.40;99.90;;;;;;4962866;28;20192;-60
2022/12/27 02:13:37;;;;;;;4.75;1.05;;;5.30;99.90;;;;;;4961509;28;20061;-61
2022/12/27 02:16:15;;;;;;;8.13;1.52;;;5.30;99.90;;;;;;4978895;28;20047;-62
2022/12/27 02:18:42;;;;;;;5.72;1.38;;;5.30;99.90;;;;;;4979477;28;20046;-61
2022/12/27 02:21:38;;;;;;;4.47;1.30;;;5.20;99.90;;;;;;4982500;28;20038;-60
2022/12/27 02:24:28;;;;;;;2.78;1.20;;;5.10;99.90;;;;;;4981302;28;20070;-61
2022/12/27 02:27:33;;;;;;;6.88;1.70;;;5.00;99.90;;;;;;4968935;28;20038;-61
2022/12/27 02:30:11;;;;;;;1.08;0.80;;;5.00;99.90;;;;;;4968904;28;20058;-60
2022/12/27 02:32:55;;;;;;;3.22;0.98;;;4.90;99.90;;;;;;4982272;28;20039;-59
2022/12/27 02:35:43;;;;;;;10.53;1.37;;;4.90;99.90;;;;;;4981939;28;20031;-61
2022/12/27 02:38:14;;;;;;;7.35;2.75;;;4.90;99.90;;;;;;4984495;28;20026;-60
2022/12/27 02:55:17;;;;;;;3.75;1.23;;;4.70;99.90;;;;;;4984172;28;20039;-61
2022/12/27 02:58:02;;;;;;;4.55;1.00;;;4.70;99.90;;;;;;4969032;28;20069;-62
2022/12/27 03:03:27;;;;;;;5.55;1.40;;;4.70;99.90;;;;;;4958954;29;20059;-62
2022/12/27 03:08:58;;;;;;;8.00;1.17;;;4.60;99.90;;;;;;4959507;29;20099;-61
2022/12/27 03:18:01;;;;;;;8.02;1.38;;;4.60;99.90;;;;;;4958956;29;20059;-60
2022/12/27 03:25:58;;;;;;;9.68;1.35;;;4.50;99.90;;;;;;4958096;29;20043;-60
2022/12/27 03:34:30;;;;;;;5.00;1.27;;;4.60;99.90;;;;;;4941058;29;20059;-60
2022/12/27 03:39:51;;;;;;;4.30;1.20;;;4.60;99.90;;;;;;4958351;29;20032;-62
2022/12/27 03:45:11;;;;;;;7.80;1.77;;;4.40;99.90;;;;;;4958238;29;20032;-60
2022/12/27 03:47:37;;;;;;;3.65;1.35;;;4.40;99.90;;;;;;4958929;29;20059;-60
2022/12/27 03:50:28;;;;;;;4.80;1.05;;;4.30;99.90;;;;;;4958746;29;20054;-60
2022/12/27 03:53:14;;;;;;;6.65;1.67;;;4.30;99.90;;;;;;4945744;29;20043;-59
2022/12/27 03:55:41;;;;;;;3.42;1.02;;;4.20;99.90;;;;;;4957849;29;20060;-59
2022/12/27 03:58:07;;;;;;;3.33;1.60;;;4.20;99.90;;;;;;4958790;28;20043;-61
2022/12/27 04:00:34;;;;;;;5.40;1.25;;;4.20;99.90;;;;;;4964584;28;20243;-60
2022/12/27 04:03:01;;;;;;;4.75;1.10;;;4.20;99.90;;;;;;4995696;28;20034;-60
2022/12/27 04:05:28;;;;;;;2.10;0.95;;;4.30;99.90;;;;;;4964540;28;20031;-60
2022/12/27 04:35:33;;;;;;;5.82;1.40;;;4.30;99.90;;;;;;4977284;29;20115;-61
2022/12/27 04:38:00;;;;;;;7.10;1.10;;;4.30;99.90;;;;;;4992276;28;20035;-59
2022/12/27 04:57:08;;;;;;;4.60;1.13;;;4.20;99.90;;;;;;4968777;28;20046;-61
2022/12/27 05:02:20;;;;;;;4.97;1.25;;;4.20;99.90;;;;;;4995800;28;20037;-59
2022/12/27 05:04:47;;;;;;;5.25;1.23;;;4.20;99.90;;;;;;4979477;28;20046;-62
2022/12/27 05:15:32;;;;;;;3.88;1.10;;;4.10;99.90;;;;;;4995929;28;20041;-60
2022/12/27 05:17:59;;;;;;;5.25;1.05;;;4.10;99.90;;;;;;4979121;28;20037;-60
2022/12/27 05:20:26;;;;;;;8.70;1.33;;;4.10;99.90;;;;;;4995945;28;20070;-60
2022/12/27 05:25:42;;;;;;;4.35;1.63;;;4.10;99.90;;;;;;4981692;28;20099;-60
2022/12/27 05:28:09;;;;;;;8.05;1.48;;;4.10;99.90;;;;;;4995620;28;20058;-60
2022/12/27 05:30:37;;;;;;;4.03;1.33;;;4.10;99.90;;;;;;4995643;28;20039;-61
2022/12/27 05:33:04;;;;;;;1.90;1.10;;;4.10;99.90;;;;;;4995624;28;20083;-59
2022/12/27 05:35:30;;;;;;;7.38;1.48;;;4.10;99.90;;;;;;4978855;28;20027;-60
2022/12/27 05:37:57;;;;;;;8.07;1.77;;;4.10;99.90;;;;;;4995845;28;20042;-59
2022/12/27 05:40:24;;;;;;;5.05;1.30;;;4.10;99.90;;;;;;4995257;28;20039;-61
2022/12/27 05:42:51;;;;;;;7.47;1.42;;;4.10;99.90;;;;;;4978883;28;20070;-60
2022/12/27 05:45:18;;;;;;;6.03;1.20;;;4.00;99.90;;;;;;4995336;28;20046;-61
2022/12/27 05:47:45;;;;;;;4.32;1.40;;;4.00;99.90;;;;;;4976257;29;20060;-60
2022/12/27 05:50:11;;;;;;;5.32;1.23;;;3.90;99.90;;;;;;4990065;28;20358;-59
2022/12/27 05:52:38;;;;;;;4.32;1.00;;;3.90;99.90;;;;;;4979628;28;20077;-60
2022/12/27 05:55:07;;;;;;;2.10;1.00;;;3.90;99.90;;;;;;4983069;28;20142;-61
2022/12/27 05:57:34;;;;;;;4.07;1.20;;;3.90;99.90;;;;;;4999302;28;20042;-61
2022/12/27 06:00:01;;;;;;;7.53;1.17;;;3.80;99.90;;;;;;4999016;28;20054;-60
2022/12/27 06:02:28;;;;;;;4.28;1.10;;;3.80;99.90;;;;;;4999241;28;20038;-59
2022/12/27 06:04:55;;;;;;;4.97;1.15;;;3.80;99.90;;;;;;4998908;28;20031;-62
2022/12/27 06:07:22;;;;;;;5.93;1.70;;;3.80;99.90;;;;;;4999041;28;20050;-60
2022/12/27 06:09:48;;;;;;;5.28;1.20;;;3.90;99.90;;;;;;4998817;28;20054;-61
2022/12/27 06:12:15;;;;;;;9.07;1.45;;;4.10;99.90;;;;;;4971575;28;20065;-60
2022/12/27 06:14:42;;;;;;;4.18;1.10;;;3.90;99.90;;;;;;4998834;28;20054;-61
2022/12/27 06:17:09;;;;;;;6.75;1.27;;;3.90;99.90;;;;;;4982352;28;20053;-60
2022/12/27 06:19:35;;;;;;;2.40;0.75;;;4.00;99.90;;;;;;4999003;28;20094;-60
2022/12/27 06:22:02;;;;;;;7.22;1.00;;;4.10;99.90;;;;;;4998764;28;20053;-60
2022/12/27 06:24:29;;;;;;;8.13;1.15;;;4.30;99.90;;;;;;4982140;28;20165;-61
2022/12/27 06:26:56;;;;;;;4.05;1.08;;;4.20;99.90;;;;;;4998253;28;20110;-61
2022/12/27 06:29:22;;;;;;;7.18;1.08;;;4.40;99.90;;;;;;4998702;28;20065;-60
2022/12/27 06:31:49;;;;;;;4.53;0.85;;;4.40;99.90;;;;;;4998527;28;20046;-60
2022/12/27 06:34:16;;;;;;;4.60;1.35;;;4.50;99.90;;;;;;4998471;28;20047;-60
2022/12/27 06:36:48;;;;;;;2.50;1.33;;;4.50;99.90;;;;;;4998428;28;20119;-60
2022/12/27 06:39:16;;;;;;;10.15;1.70;;;4.60;99.90;;;;;;4982774;28;20042;-60
2022/12/27 06:41:43;;;;;;;9.82;1.25;;;4.70;99.90;;;;;;4998140;28;20043;-60
2022/12/27 06:44:10;;;;;;;8.60;1.65;;;4.70;99.90;;;;;;4998392;28;20054;-60
2022/12/27 06:46:37;;;;;;;5.50;0.90;;;4.80;99.90;;;;;;4981576;28;20031;-60
2022/12/27 06:49:03;;;;;;;8.10;1.45;;;4.80;99.90;;;;;;4998318;28;20062;-60
2022/12/27 06:51:30;;;;;;;9.85;1.20;;;4.90;99.90;;;;;;4998043;28;20046;-57
2022/12/27 06:53:57;;;;;;;11.13;1.65;;;4.90;99.90;;;;;;4981556;28;20034;-60
2022/12/27 06:56:24;;;;;;;5.18;0.98;;;4.90;99.90;;;;;;4997944;28;20049;-59
2022/12/27 06:58:51;;;;;;;9.70;1.40;;;5.00;99.90;;;;;;4997948;28;20042;-61
2022/12/27 07:01:20;;;;;;;13.40;1.40;;;5.00;99.90;;;;;;4998067;28;20031;-59
2022/12/27 07:03:50;;;;;;;3.85;1.50;;;5.10;99.90;;;;;;4997791;28;20066;-59
2022/12/27 07:06:17;;;;;;;6.22;0.90;;;5.10;99.90;;;;;;4997578;28;20054;-59
2022/12/27 07:08:45;;;;;;;8.18;1.27;;;5.10;99.90;;;;;;4997889;28;20046;-59
2022/12/27 07:11:12;;;;;;;3.30;1.30;;;5.20;99.90;;;;;;4997866;28;20058;-61
2022/12/27 07:13:43;;;;;;;9.15;1.30;;;5.20;99.90;;;;;;4997661;28;20058;-61
2022/12/27 07:16:11;;;;;;;6.93;1.30;;;5.20;99.90;;;;;;4981785;28;20114;-61
2022/12/27 07:18:38;;;;;;;16.55;1.55;;;5.30;99.90;;;;;;4980947;28;20081;-62
2022/12/27 07:21:06;;;;;;;8.20;1.23;;;5.30;99.90;;;;;;4981153;28;20038;-61
2022/12/27 07:23:33;;;;;;;11.15;0.93;;;5.30;99.90;;;;;;4997633;28;20046;-62
2022/12/27 07:26:04;;;;;;;5.50;1.40;;;5.30;99.90;;;;;;4980573;28;20035;-60
2022/12/27 07:28:31;;;;;;;5.82;1.83;;;5.40;99.90;;;;;;4997671;28;20030;-59
2022/12/27 07:30:57;;;;;;;7.85;1.55;;;5.50;99.90;;;;;;4997337;28;20095;-60
2022/12/27 07:33:24;;;;;;;7.57;1.00;;;5.50;99.90;;;;;;4980587;28;20058;-60
2022/12/27 07:36:01;;;;;;;5.80;1.58;;;5.50;99.90;;;;;;4964599;28;20042;-60
2022/12/27 07:38:27;;;;;;;7.88;1.13;;;5.60;99.90;;;;;;4964565;28;20680;-59
2022/12/27 07:40:58;;;;;;;14.15;1.38;;;5.60;99.90;;;;;;4997256;28;20053;-60
2022/12/27 07:43:28;;;;;;;5.57;1.20;;;5.60;99.90;;;;;;4980379;28;20030;-59
2022/12/27 07:45:54;;;;;;;10.55;1.45;;;5.70;99.90;;;;;;4997031;28;20045;-60
2022/12/27 07:48:21;;;;;;;18.40;1.60;;;5.70;99.90;;;;;;4980255;28;20027;-60
2022/12/27 07:50:54;;;;;;;10.32;2.13;;;5.80;99.90;;;;;;4980458;28;20035;-60
2022/12/27 07:53:21;;;;;;;7.73;1.30;;;5.80;99.90;;;;;;4997373;28;20039;-62
2022/12/27 07:55:50;;;;;;;10.95;1.45;;;5.90;99.90;;;;;;4997184;28;20328;-60
2022/12/27 07:58:17;;;;;;;9.50;1.25;;;5.90;99.90;;;;;;4994367;28;20061;-62
2022/12/27 08:00:48;;;;;;;5.80;0.73;;;5.90;99.90;;;;;;4980534;28;20119;-60
2022/12/27 08:03:15;;;;;;;7.60;1.25;;;6.00;99.90;;;;;;4996975;28;20049;-61
2022/12/27 08:05:48;;;;;;;6.50;1.08;;;6.00;99.90;;;;;;4980671;28;20140;-60
2022/12/27 08:08:15;;;;;;;6.63;1.50;;;6.10;99.90;;;;;;4997170;28;20035;-60
2022/12/27 08:10:42;;;;;;;6.90;1.30;;;6.00;99.90;;;;;;4996806;28;20031;-61
2022/12/27 08:13:09;;;;;;;20.55;4.00;;;6.10;99.90;;;;;;4997205;28;20051;-60
2022/12/27 08:15:36;;;;;;;6.75;2.13;;;6.10;99.90;;;;;;4996264;28;20031;-61
2022/12/27 08:18:03;;;;;;;6.90;1.20;;;6.10;99.90;;;;;;4979932;28;20030;-61
2022/12/27 08:20:30;;;;;;;10.13;1.73;;;6.10;99.90;;;;;;4979985;28;20074;-61
2022/12/27 08:22:56;;;;;;;8.60;1.73;;;6.10;99.90;;;;;;4980428;28;20035;-59
2022/12/27 08:25:23;;;;;;;7.43;1.40;;;6.10;99.90;;;;;;4996621;28;20026;-61
2022/12/27 08:27:50;;;;;;;5.90;1.20;;;6.10;99.90;;;;;;4964255;28;20038;-61
2022/12/27 08:30:17;;;;;;;6.55;2.05;;;6.10;99.90;;;;;;4996327;28;20023;-60
2022/12/27 08:32:44;;;;;;;8.90;1.73;;;6.10;99.90;;;;;;4996600;28;20049;-60
2022/12/27 08:35:11;;;;;;;10.82;1.48;;;6.20;99.90;;;;;;4979789;28;20023;-61
2022/12/27 08:38:01;;;;;;;8.60;1.23;;;6.20;99.90;;;;;;4996667;28;20099;-61
2022/12/27 08:40:29;;;;;;;11.00;1.50;;;6.20;99.90;;;;;;4996431;28;20047;-60
2022/12/27 08:42:58;;;;;;;8.00;1.17;;;6.20;99.90;;;;;;4976761;28;20113;-60
2022/12/27 08:45:25;;;;;;;10.63;1.63;;;6.20;99.90;;;;;;4979690;28;20030;-61
2022/12/27 08:47:52;;;;;;;3.67;1.00;;;6.30;99.90;;;;;;4996474;28;20417;-60
2022/12/27 08:50:19;;;;;;;8.13;1.50;;;6.30;99.90;;;;;;4996151;28;20035;-60
2022/12/27 08:52:45;;;;;;;6.30;1.85;;;6.30;99.90;;;;;;4988872;28;20038;-60
2022/12/27 08:55:12;;;;;;;6.88;1.35;;;6.30;99.90;;;;;;4995769;28;20066;-60
2022/12/27 08:57:39;;;;;;;8.35;1.23;;;6.40;99.90;;;;;;4996110;28;20057;-61
2022/12/27 09:00:08;;;;;;;5.60;1.00;;;6.30;99.90;;;;;;4979203;28;20058;-59
2022/12/27 09:02:36;;;;;;;4.85;1.17;;;6.40;99.90;;;;;;4996146;28;20041;-60
2022/12/27 09:05:03;;;;;;;9.00;1.48;;;6.40;99.90;;;;;;4979225;28;20062;-61
2022/12/27 09:07:30;;;;;;;9.25;0.98;;;6.50;99.90;;;;;;4996231;28;20077;-59
2022/12/27 09:09:57;;;;;;;7.63;1.30;;;6.50;99.90;;;;;;4996473;28;20030;-61
2022/12/27 09:12:24;;;;;;;4.82;1.27;;;6.50;99.90;;;;;;4978576;28;20062;-59
2022/12/27 09:14:50;;;;;;;4.70;1.92;;;6.60;99.90;;;;;;4996195;28;20031;-59
2022/12/27 09:17:17;;;;;;;5.20;1.73;;;6.70;99.90;;;;;;4979045;28;20031;-60
2022/12/27 09:19:44;;;;;;;7.57;1.60;;;6.70;99.90;;;;;;4995820;28;20095;-61
2022/12/27 09:22:12;;;;;;;10.95;1.10;;;6.80;99.90;;;;;;4979327;28;20062;-60
2022/12/27 09:24:39;;;;;;;13.25;1.40;;;6.80;99.90;;;;;;4978785;28;20039;-60
2022/12/27 09:27:08;;;;;;;6.78;1.15;;;6.90;99.90;;;;;;4978897;28;20042;-61
2022/12/27 09:29:34;;;;;;;11.48;1.30;;;7.00;99.90;;;;;;4995916;28;20042;-59
2022/12/27 09:32:01;;;;;;;14.68;1.33;;;7.00;99.90;;;;;;4978323;28;20039;-61
2022/12/27 09:34:28;;;;;;;6.57;1.00;;;7.10;99.90;;;;;;4995858;28;20038;-62
2022/12/27 09:36:56;;;;;;;7.15;1.10;;;7.10;99.90;;;;;;4978760;28;20055;-61
2022/12/27 09:39:22;;;;;;;10.05;1.48;;;7.20;99.90;;;;;;4995605;28;20085;-60
2022/12/27 09:41:57;;;;;;;7.07;1.90;;;7.30;99.90;;;;;;4963043;28;20055;-60
2022/12/27 09:45:07;;;;;;;13.70;1.50;;;7.30;99.90;;;;;;4988423;28;20053;-61
2022/12/27 09:47:52;;;;;;;15.95;1.40;;;7.40;99.90;;;;;;4963927;28;20034;-61
2022/12/27 09:50:32;;;;;;;9.48;1.25;;;7.50;99.90;;;;;;4995624;28;20050;-59
2022/12/27 09:53:02;;;;;;;8.68;1.05;;;7.50;99.90;;;;;;4963255;28;20081;-59
2022/12/27 09:55:40;;;;;;;10.80;1.35;;;7.60;99.90;;;;;;4995464;28;20046;-60
2022/12/27 09:58:23;;;;;;;4.68;0.98;;;7.70;99.90;;;;;;4978691;28;20038;-62
2022/12/27 10:00:50;;;;;;;12.13;1.45;;;7.70;99.90;;;;;;4995873;28;20087;-62
2022/12/27 10:03:18;;;;;;;13.38;1.42;;;7.70;99.90;;;;;;4995469;28;20046;-61
2022/12/27 10:05:45;;;;;;;9.90;1.52;;;7.80;99.90;;;;;;4962800;28;20031;-61
2022/12/27 10:08:33;;;;;;;8.77;1.52;;;7.80;99.90;;;;;;4979024;28;20030;-60
2022/12/27 10:11:03;;;;;;;10.90;1.92;;;7.80;99.90;;;;;;4978117;28;20078;-60
2022/12/27 10:13:52;;;;;;;14.95;3.75;;;7.80;99.90;;;;;;4994784;28;20031;-61
2022/12/27 10:16:36;;;;;;;12.05;2.08;;;7.80;99.90;;;;;;4978651;28;20057;-60
2022/12/27 10:19:43;;;;;;;11.73;2.13;;;7.90;99.90;;;;;;4978215;28;20051;-60
2022/12/27 10:22:35;;;;;;;12.20;1.30;;;7.90;99.90;;;;;;4948425;29;20031;-61
2022/12/27 10:25:04;;;;;;;6.47;1.10;;;7.80;99.90;;;;;;4994955;28;20055;-63
2022/12/27 10:27:31;;;;;;;11.32;1.75;;;7.90;99.90;;;;;;4974833;29;20035;-60
2022/12/27 10:29:58;;;;;;;7.60;1.77;;;7.90;99.90;;;;;;4993101;28;20030;-60
2022/12/27 10:32:25;;;;;;;6.80;1.52;;;7.90;99.90;;;;;;4978683;28;20057;-60
2022/12/27 10:34:58;;;;;;;10.70;2.05;;;8.00;99.90;;;;;;4994478;28;20095;-60
2022/12/27 10:37:25;;;;;;;9.85;1.42;;;8.10;99.90;;;;;;4974862;29;20044;-60
2022/12/27 10:39:52;;;;;;;14.95;1.98;;;8.10;99.90;;;;;;4993801;28;20042;-61
2022/12/27 10:42:21;;;;;;;12.95;1.75;;;8.20;99.90;;;;;;4981547;28;20035;-60
2022/12/27 10:44:48;;;;;;;9.93;1.35;;;8.20;99.90;;;;;;4998278;28;20051;-62
2022/12/27 10:47:15;;;;;;;12.02;1.98;;;8.20;99.90;;;;;;4981578;28;20039;-62
2022/12/27 10:49:43;;;;;;;7.90;1.40;;;8.30;99.90;;;;;;4965263;28;20035;-60
2022/12/27 10:52:20;;;;;;;5.32;1.38;;;8.30;99.90;;;;;;4965724;28;20039;-61
2022/12/27 10:54:56;;;;;;;8.73;1.73;;;8.40;99.90;;;;;;4966130;28;20042;-62
2022/12/27 10:57:26;;;;;;;6.65;1.75;;;8.50;99.90;;;;;;4981276;28;20034;-60
2022/12/27 11:00:12;;;;;;;9.68;1.65;;;8.50;99.90;;;;;;4997667;28;20031;-59
2022/12/27 11:02:52;;;;;;;9.95;1.23;;;8.70;99.90;;;;;;4997956;28;20038;-61
2022/12/27 11:05:30;;;;;;;11.73;1.38;;;8.70;99.90;;;;;;4997724;28;20132;-60
2022/12/27 11:07:57;;;;;;;7.78;1.52;;;8.70;99.90;;;;;;4981008;28;20111;-60
2022/12/27 11:10:30;;;;;;;14.85;1.50;;;8.70;99.90;;;;;;4965078;28;20027;-64
2022/12/27 11:13:04;;;;;;;6.32;1.30;;;8.80;99.90;;;;;;4997798;28;20054;-60
2022/12/27 11:15:32;;;;;;;;;;;8.70;99.90;;;;;;4981314;28;20150;-59
2022/12/27 11:18:03;;;;;;;11.38;1.55;;;8.70;99.90;;;;;;4997624;28;19917;-58
2022/12/27 11:20:31;;;;;;;8.75;1.33;;;8.80;99.90;;;;;;4980668;28;20046;-59
2022/12/27 11:23:02;;;;;;;15.13;1.95;;;8.80;99.90;;;;;;4981149;28;20037;-59
2022/12/27 11:25:29;;;;;;;6.20;1.05;;;8.80;99.90;;;;;;4997387;28;20042;-59
2022/12/27 11:28:25;;;;;;;6.70;1.80;;;8.90;99.90;;;;;;4980450;28;20055;-59
2022/12/27 11:31:02;;;;;;;11.15;1.77;;;8.90;99.90;;;;;;4991787;28;20027;-60
2022/12/27 11:33:38;;;;;;;7.20;1.70;;;8.90;99.90;;;;;;4965623;28;20150;-64
2022/12/27 11:36:06;;;;;;;10.85;2.28;;;9.00;99.90;;;;;;4964769;28;20157;-59
2022/12/27 11:38:33;;;;;;;12.63;2.85;;;9.00;99.90;;;;;;4964913;28;20111;-59
2022/12/27 11:41:02;;;;;;;12.75;2.03;;;9.00;99.90;;;;;;4964420;28;20097;-60
2022/12/27 11:43:31;;;;;;;15.85;1.65;;;9.00;99.90;;;;;;4980482;28;20039;-61
2022/12/27 11:45:58;;;;;;;5.63;1.65;;;9.00;99.90;;;;;;4964691;28;20047;-60
2022/12/27 11:48:30;;;;;;;6.63;1.30;;;9.00;99.90;;;;;;4986220;28;20030;-60
2022/12/27 11:51:40;;;;;;;8.55;2.05;;;9.00;99.90;;;;;;4964354;28;20037;-60
2022/12/27 11:54:21;;;;;;;9.98;1.92;;;9.10;99.90;;;;;;4976647;28;20069;-59
2022/12/27 11:56:59;;;;;;;9.93;2.05;;;9.20;99.90;;;;;;4965563;28;20102;-60
2022/12/27 11:59:38;;;;;;;9.45;1.55;;;9.20;99.90;;;;;;4980163;28;20090;-60
2022/12/27 12:02:50;;;;;;;12.75;2.17;;;9.30;99.90;;;;;;4996498;28;20038;-59
2022/12/27 12:05:40;;;;;;;9.20;1.58;;;9.30;99.90;;;;;;4996792;28;20050;-60
2022/12/27 12:08:26;;;;;;;8.23;2.15;;;9.40;99.90;;;;;;4996512;28;20073;-59
2022/12/27 12:11:21;;;;;;;10.90;1.83;;;9.40;99.90;;;;;;4963778;28;20041;-61
2022/12/27 12:14:14;;;;;;;8.45;1.55;;;9.40;99.90;;;;;;4996345;28;20049;-60
2022/12/27 12:16:53;;;;;;;11.15;2.25;;;9.50;99.90;;;;;;4996341;28;20042;-59
2022/12/27 12:19:31;;;;;;;16.80;2.28;;;9.60;99.90;;;;;;4996137;28;20038;-59
2022/12/27 12:22:37;;;;;;;14.32;2.08;;;9.60;99.90;;;;;;4996248;28;20051;-61
2022/12/27 12:25:28;;;;;;;11.07;2.42;;;9.60;99.90;;;;;;4966846;28;20054;-60
2022/12/27 12:28:15;;;;;;;7.93;2.20;;;9.80;99.90;;;;;;4980463;28;20041;-59
2022/12/27 12:31:38;;;;;;;14.60;2.50;;;9.90;99.90;;;;;;4982061;28;20055;-60
2022/12/27 12:34:16;;;;;;;7.28;2.38;;;9.90;99.90;;;;;;4979252;28;20050;-60
2022/12/27 12:37:22;;;;;;;11.90;2.00;;;10.10;99.90;;;;;;4980847;28;20030;-61
2022/12/27 12:39:54;;;;;;;9.40;2.72;;;10.10;99.90;;;;;;4971302;28;20074;-61
2022/12/27 12:42:42;;;;;;;17.35;2.28;;;10.10;99.90;;;;;;4995768;28;20049;-60
2022/12/27 12:45:34;;;;;;;10.68;1.83;;;10.10;99.90;;;;;;5004734;28;20098;-60
2022/12/27 12:48:11;;;;;;;13.40;2.45;;;10.10;99.90;;;;;;4963387;28;20022;-61
2022/12/27 12:50:51;;;;;;;26.63;4.28;;;10.10;99.90;;;;;;4969814;28;20092;-60
2022/12/27 12:54:08;;;;;;;8.43;2.50;;;10.00;99.90;;;;;;4995844;28;20027;-60
2022/12/27 12:56:57;;;;;;;12.63;2.30;;;10.10;99.90;;;;;;4966532;28;20031;-60
2022/12/27 12:59:48;;;;;;;7.10;2.17;;;10.20;99.90;;;;;;4978787;28;20066;-60
2022/12/27 13:02:33;;;;;;;14.55;2.33;;;10.10;99.90;;;;;;4945386;29;20039;-59
2022/12/27 13:05:17;;;;;;;13.85;2.47;;;10.20;99.90;;;;;;4976049;28;20058;-61
2022/12/27 13:07:59;;;;;;;9.25;1.83;;;10.20;99.90;;;;;;4964578;28;20042;-61
2022/12/27 13:10:38;;;;;;;9.30;1.70;;;10.20;99.90;;;;;;4995389;28;20034;-60
2022/12/27 13:13:11;;;;;;;17.50;1.90;;;10.20;99.90;;;;;;4995395;28;20123;-61
2022/12/27 13:16:01;;;;;;;11.95;2.53;;;10.20;99.90;;;;;;4995350;28;20066;-61
2022/12/27 13:18:47;;;;;;;8.93;1.98;;;10.10;99.90;;;;;;4978782;28;20172;-59
2022/12/27 13:21:40;;;;;;;11.73;2.10;;;10.10;99.90;;;;;;4961706;28;20027;-61
2022/12/27 13:24:37;;;;;;;12.18;1.35;;;10.10;99.90;;;;;;4995296;28;20050;-61
2022/12/27 13:27:26;;;;;;;15.25;2.97;;;10.10;99.90;;;;;;4987708;28;20042;-62
2022/12/27 13:30:04;;;;;;;8.30;1.60;;;10.10;99.90;;;;;;4978306;28;20043;-59
2022/12/27 13:33:04;;;;;;;8.13;1.58;;;10.10;99.90;;;;;;4978968;28;20043;-60
2022/12/27 13:36:00;;;;;;;9.70;1.65;;;10.10;99.90;;;;;;4995275;28;20102;-62
2022/12/27 13:38:54;;;;;;;15.65;2.00;;;10.10;99.90;;;;;;4963696;29;20039;-61
2022/12/27 13:41:54;;;;;;;11.25;3.30;;;10.20;99.90;;;;;;4980810;28;20055;-61
2022/12/27 13:44:51;;;;;;;11.50;1.52;;;10.20;99.90;;;;;;4964831;28;20077;-60
2022/12/27 13:47:34;;;;;;;14.80;2.78;;;10.20;99.90;;;;;;4995332;28;20030;-60
2022/12/27 13:50:10;;;;;;;13.38;3.05;;;10.20;99.90;;;;;;4963513;28;20031;-60
2022/12/27 13:53:22;;;;;;;4.90;1.33;;;10.20;99.90;;;;;;4985358;28;20038;-59
2022/12/27 13:56:16;;;;;;;10.82;2.45;;;10.30;99.90;;;;;;4977842;28;20031;-60
2022/12/27 13:59:11;;;;;;;19.65;4.38;;;10.30;99.90;;;;;;4994958;28;20039;-60
2022/12/27 14:02:10;;;;;;;13.95;1.98;;;10.40;99.90;;;;;;4978690;28;20041;-61
2022/12/27 14:04:41;;;;;;;12.50;1.60;;;10.30;99.90;;;;;;4954601;29;20102;-61
2022/12/27 14:07:28;;;;;;;13.60;2.47;;;10.40;99.90;;;;;;4992598;28;20027;-61
2022/12/27 14:10:05;;;;;;;12.25;2.47;;;10.40;99.90;;;;;;4980563;28;20035;-60
2022/12/27 14:12:38;;;;;;;14.27;2.78;;;10.40;99.90;;;;;;4978483;28;20047;-60
2022/12/27 14:15:06;;;;;;;9.32;1.77;;;10.40;99.90;;;;;;4981157;28;20111;-64
2022/12/27 14:17:39;;;;;;;19.85;2.05;;;10.40;99.90;;;;;;4965726;28;20035;-60
2022/12/27 14:20:10;;;;;;;11.15;1.60;;;10.20;99.90;;;;;;4982626;28;20035;-61
2022/12/27 14:23:04;;;;;;;11.88;2.35;;;10.20;99.90;;;;;;4981392;28;20035;-61
2022/12/27 14:25:46;;;;;;;12.07;1.80;;;10.10;99.90;;;;;;4982063;28;20050;-62
2022/12/27 14:28:46;;;;;;;17.25;2.42;;;10.10;99.90;;;;;;4980947;28;20034;-60
2022/12/27 14:32:14;;;;;;;7.45;1.73;;;10.20;99.90;;;;;;4952968;28;20094;-59
2022/12/27 14:35:18;;;;;;;17.42;2.63;;;10.10;99.90;;;;;;4909218;29;20056;-59
2022/12/27 14:38:07;;;;;;;15.85;2.42;;;10.10;99.90;;;;;;4997242;28;20043;-60
2022/12/27 14:40:56;;;;;;;15.57;3.03;;;10.00;99.90;;;;;;4978772;29;20062;-60
2022/12/27 14:43:28;;;;;;;12.88;2.15;;;9.90;99.90;;;;;;4987234;28;20055;-61
2022/12/27 14:46:23;;;;;;;12.63;3.08;;;9.90;99.90;;;;;;4998400;28;20043;-58
2022/12/27 14:49:11;;;;;;;13.35;2.22;;;9.90;99.90;;;;;;4997623;28;20037;-60
2022/12/27 14:51:58;;;;;;;7.97;2.22;;;9.90;99.90;;;;;;4997619;28;20038;-59
2022/12/27 14:55:12;;;;;;;10.07;2.65;;;10.00;99.90;;;;;;4981087;28;20049;-61
2022/12/27 14:57:53;;;;;;;12.25;2.35;;;10.00;99.90;;;;;;4981139;28;20090;-60
2022/12/27 15:00:23;;;;;;;17.40;3.25;;;10.00;99.90;;;;;;4997437;28;20043;-62
2022/12/27 15:03:30;;;;;;;8.80;2.60;;;10.00;99.90;;;;;;4981075;28;20250;-61
2022/12/27 15:06:18;;;;;;;9.70;2.05;;;10.00;99.90;;;;;;4997844;28;20031;-61
2022/12/27 15:09:01;;;;;;;11.75;2.42;;;10.00;99.90;;;;;;4965255;28;20026;-59
2022/12/27 15:11:46;;;;;;;27.27;4.03;;;10.00;99.90;;;;;;4962521;29;20045;-60
2022/12/27 15:14:32;;;;;;;20.20;4.13;;;10.00;99.90;;;;;;4963220;28;20084;-59